Portada
METAR-TAF:

METAR-TAF

Aeropuertos :

Aeropuerto Internacional de Xi'an-Xianyang

Xi'an, China

latitud: 34-26N, longitud: 108-45E, altitud: 479 m

Observación

El informe se hizo hace 11 minutos, a las 14:00 UTC
Viento 4 kt del oeste
Temperatura 22°C
Humedad 41%
Presión 1009 hPa
Visibilidad: 6000 m

METAR: ZLXY 241400Z 28002MPS 6000 NSC 22/08 Q1009 NOSIG

Hora: 22:11 (14:11 UTC)

Pronóstico

El informe se hizo hace 5 horas y 1 minutos, a las 09:10 UTC
Pronóstico válido del 24 a las 12 UTC al 25 a las 12 UTC
Viento 8 kt del oeste-suroeste
Visibilidad: 3000 m
calima

TAF: ZLXY 240910Z 2412/2512 24004MPS 3000 HZ NSC TX32/2507Z TN14/2422Z

Observaciones y pronósticos meteorológicos de más de 4000 aeropuertos (mensajes METAR y TAF).

Los puntos amarillos y rojos representan las estaciones disponibles.

Ponga el ratón en el punto deseado para ver el nombre de la estación.

Haga clic para ver las observaciones y los pronósticos meteorológicos.

Para cambiar el mapa : haga clic en los botones verdes con una cruz de color negro para hacer un zoom, en el botón verde con un guión para alejar o en las flechas verdes para mapas adyacentes.


METAR-TAF: